.
WxDataArchive / Data Records for 2009-04-03
2009-04-02 April 2009 2009-04-04

Data Records for Friday, 03 April 2009

Time	Temp	Chill	HIndex	Humid	Dewpt	 Wind 	HiWind	WindDir	Rain 	Barom 
-----	----	-----	------	-----	-----	------	------	-------	-----	----- 
00:00	46.5	46.5	46.5	93	44.6	1	6	90	0.00	29.306 
00:05	46.4	46.4	46.4	93	44.5	2	5	112	0.01	29.296 
00:10	46.2	46.2	46.2	93	44.3	2	5	90	0.02	29.302 
00:15	46.1	46.1	46.1	93	44.2	2	7	112	0.01	29.297 
00:20	46.1	46.1	46.1	93	44.2	3	7	90	0.00	29.289 
00:25	46.1	46.1	46.1	93	44.2	2	5	112	0.01	29.282 
00:30	46.1	46.1	46.1	93	44.2	2	5	90	0.01	29.270 
00:35	46.1	46.1	46.1	93	44.2	3	9	112	0.00	29.264 
00:40	46.0	46.0	46.0	93	44.1	3	7	112	0.00	29.264 
00:45	46.0	46.0	46.0	93	44.1	3	10	90	0.00	29.260 
00:50	46.0	46.0	46.0	93	44.1	2	7	112	0.01	29.258 
00:55	46.0	46.0	46.0	93	44.1	2	7	112	0.00	29.258 
01:00	46.0	46.0	46.0	94	44.4	3	8	112	0.00	29.259 
01:05	46.1	46.1	46.1	94	44.5	3	7	90	0.00	29.257 
01:10	46.1	46.1	46.1	94	44.5	3	9	112	0.01	29.254 
01:15	46.1	46.1	46.1	94	44.5	3	7	112	0.00	29.253 
01:20	46.1	46.1	46.1	94	44.5	2	7	90	0.01	29.248 
01:25	46.1	46.1	46.1	94	44.5	3	6	90	0.00	29.248 
01:30	46.2	46.2	46.2	94	44.6	3	7	112	0.01	29.244 
01:35	46.2	46.2	46.2	94	44.6	1	5	112	0.00	29.241 
01:40	46.2	46.2	46.2	94	44.6	1	2	112	0.00	29.243 
01:45	46.2	46.2	46.2	94	44.6	1	5	90	0.00	29.239 
01:50	46.2	46.2	46.2	94	44.6	2	5	112	0.00	29.238 
01:55	46.2	46.2	46.2	94	44.6	1	4	90	0.01	29.239 
02:00	46.2	46.2	46.2	94	44.6	0	3	90	0.00	29.235 
02:05	46.2	46.2	46.2	94	44.6	0	3	68	0.01	29.229 
02:10	46.2	46.2	46.2	94	44.6	1	3	68	0.00	29.224 
02:15	46.4	46.4	46.4	94	44.8	0	2	68	0.00	29.225 
02:20	46.4	46.4	46.4	94	44.8	1	4	68	0.00	29.224 
02:25	46.4	46.4	46.4	94	44.8	1	3	112	0.01	29.223 
02:30	46.4	46.4	46.4	94	44.8	0	2	112	0.00	29.222 
02:35	46.4	46.4	46.4	94	44.8	0	2	112	0.00	29.217 
02:40	46.4	46.4	46.4	94	44.8	1	6	112	0.00	29.212 
02:45	46.4	46.4	46.4	95	45.0	1	3	112	0.00	29.208 
02:50	46.2	46.2	46.2	95	44.8	0	2	22	0.00	29.205 
02:55	46.4	46.4	46.4	95	45.0	1	2	22	0.00	29.202 
03:00	46.4	46.4	46.4	95	45.0	0	2	68	0.00	29.196 
03:05	46.4	46.4	46.4	95	45.0	1	3	68	0.00	29.195 
03:10	46.4	46.4	46.4	95	45.0	0	3	90	0.00	29.193 
03:15	46.4	46.4	46.4	95	45.0	0	3	90	0.00	29.191 
03:20	46.4	46.4	46.4	95	45.0	0	4	90	0.00	29.189 
03:25	46.4	46.4	46.4	95	45.0	0	2	90	0.00	29.189 
03:30	46.4	46.4	46.4	95	45.0	0	2	90	0.00	29.187 
03:35	46.4	46.4	46.4	95	45.0	0	2	90	0.00	29.185 
03:40	46.5	46.5	46.5	95	45.1	1	2	90	0.00	29.190 
03:45	46.5	46.5	46.5	95	45.1	0	2	90	0.00	29.190 
03:50	46.7	46.7	46.7	95	45.3	1	3	90	0.00	29.191 
03:55	46.7	46.7	46.7	95	45.3	1	3	338	0.00	29.191 
04:00	46.7	46.7	46.7	95	45.3	1	3	292	0.00	29.193 
04:05	46.7	46.7	46.7	95	45.3	0	3	315	0.00	29.192 
04:10	46.7	46.7	46.7	95	45.3	1	4	292	0.00	29.191 
04:15	46.7	46.7	46.7	95	45.3	1	4	270	0.00	29.191 
04:20	46.7	46.7	46.7	95	45.3	1	5	292	0.00	29.191 
04:25	46.7	46.7	46.7	95	45.3	0	2	292	0.00	29.192 
04:30	46.7	46.7	46.7	95	45.3	1	5	270	0.00	29.191 
04:35	46.7	46.7	46.7	95	45.3	1	4	315	0.00	29.191 
04:40	46.7	46.7	46.7	95	45.3	1	5	315	0.00	29.191 
04:45	46.7	46.7	46.7	95	45.3	2	5	338	0.00	29.191 
04:50	46.7	46.7	46.7	95	45.3	1	3	315	0.00	29.192 
04:55	46.7	46.7	46.7	95	45.3	2	5	315	0.00	29.192 
05:00	46.7	46.7	46.7	95	45.3	1	4	315	0.00	29.194 
05:05	46.5	46.5	46.5	95	45.1	2	6	338	0.00	29.193 
05:10	46.4	46.4	46.4	95	45.0	2	6	338	0.00	29.193 
05:15	46.4	46.4	46.4	95	45.0	2	6	315	0.00	29.197 
05:20	46.2	46.2	46.2	95	44.8	1	4	315	0.00	29.196 
05:25	46.1	46.1	46.1	95	44.7	2	11	315	0.00	29.195 
05:30	46.0	46.0	46.0	95	44.6	2	8	270	0.00	29.197 
05:35	45.8	45.8	45.8	94	44.2	2	9	315	0.00	29.199 
05:40	45.7	45.7	45.7	94	44.1	2	7	0	0.00	29.201 
05:45	45.7	45.7	45.7	94	44.1	3	9	338	0.00	29.205 
05:50	45.7	45.7	45.7	94	44.1	2	9	0	0.00	29.208 
05:55	45.5	45.5	45.5	94	43.9	2	5	338	0.00	29.208 
06:00	45.4	45.4	45.4	94	43.8	2	4	315	0.00	29.209 
06:05	45.2	45.2	45.2	94	43.6	2	6	315	0.00	29.213 
06:10	45.1	45.1	45.1	94	43.5	2	7	338	0.00	29.214 
06:15	44.9	44.9	44.9	93	43.0	3	7	338	0.00	29.215 
06:20	44.9	44.9	44.9	93	43.0	2	11	315	0.00	29.218 
06:25	44.9	44.9	44.9	93	43.0	2	5	338	0.00	29.218 
06:30	44.8	44.8	44.8	93	42.9	2	7	292	0.00	29.224 
06:35	44.9	44.9	44.9	93	43.0	3	9	270	0.00	29.228 
06:40	44.8	42.9	44.8	92	42.6	4	11	315	0.00	29.230 
06:45	44.8	44.8	44.8	92	42.6	2	6	315	0.00	29.231 
06:50	44.6	44.6	44.6	92	42.4	2	5	338	0.00	29.237 
06:55	44.5	44.5	44.5	92	42.3	3	6	315	0.00	29.242 
07:00	44.5	44.5	44.5	91	42.0	3	9	338	0.00	29.245 
07:05	44.3	44.3	44.3	91	41.8	2	5	315	0.00	29.247 
07:10	44.3	44.3	44.3	91	41.8	2	10	338	0.00	29.250 
07:15	44.5	44.5	44.5	90	41.8	2	9	292	0.00	29.254 
07:20	44.5	44.5	44.5	90	41.8	2	7	338	0.00	29.258 
07:25	44.5	44.5	44.5	90	41.8	3	6	0	0.00	29.262 
07:30	44.5	44.5	44.5	89	41.5	3	11	292	0.00	29.264 
07:35	44.6	44.6	44.6	89	41.6	3	11	315	0.00	29.266 
07:40	44.5	44.5	44.5	89	41.5	2	6	292	0.00	29.272 
07:45	44.5	44.5	44.5	89	41.5	2	9	315	0.00	29.279 
07:50	44.5	44.5	44.5	88	41.2	3	10	270	0.00	29.283 
07:55	44.5	44.5	44.5	88	41.2	3	10	338	0.00	29.289 
08:00	44.5	44.5	44.5	88	41.2	2	5	315	0.00	29.293 
08:05	44.5	44.5	44.5	88	41.2	2	6	292	0.00	29.302 
08:10	44.5	44.5	44.5	88	41.2	3	13	292	0.00	29.303 
08:15	44.5	42.5	44.5	87	40.9	4	9	315	0.00	29.307 
08:20	44.5	42.5	44.5	87	40.9	4	13	315	0.00	29.307 
08:25	44.5	42.5	44.5	87	40.9	4	10	270	0.00	29.312 
08:30	44.6	42.6	44.6	86	40.7	4	14	0	0.00	29.321 
08:35	44.8	42.9	44.8	86	40.9	4	12	315	0.00	29.330 
08:40	44.8	42.9	44.8	85	40.6	4	11	315	0.00	29.327 
08:45	44.9	43.0	44.9	85	40.7	4	7	315	0.00	29.330 
08:50	45.1	45.1	45.1	85	40.9	3	9	292	0.00	29.332 
08:55	45.1	45.1	45.1	85	40.9	3	11	270	0.00	29.332 
09:00	45.2	43.3	45.2	84	40.7	4	10	315	0.00	29.333 
09:05	45.2	43.3	45.2	84	40.7	4	11	292	0.00	29.335 
09:10	45.4	42.8	45.4	84	40.9	5	15	315	0.00	29.335 
09:15	45.4	43.6	45.4	84	40.9	4	9	315	0.00	29.340 
09:20	45.4	43.6	45.4	84	40.9	4	9	338	0.00	29.348 
09:25	45.4	43.6	45.4	84	40.9	4	13	315	0.00	29.351 
09:30	45.4	43.6	45.4	84	40.9	4	10	292	0.00	29.352 
09:35	45.2	43.3	45.2	84	40.7	4	10	270	0.00	29.355 
09:40	45.1	43.2	45.1	84	40.6	4	9	315	0.00	29.363 
09:45	44.9	43.0	44.9	84	40.4	4	11	315	0.00	29.368 
09:50	44.8	42.1	44.8	83	40.0	5	12	292	0.00	29.372 
09:55	44.8	42.1	44.8	83	40.0	5	10	315	0.00	29.377 
10:00	44.8	44.8	44.8	83	40.0	3	13	270	0.00	29.380 
10:05	44.6	42.6	44.6	83	39.8	4	10	270	0.00	29.384 
10:10	44.8	42.1	44.8	82	39.6	5	15	315	0.00	29.384 
10:15	44.9	43.0	44.9	81	39.4	4	10	270	0.00	29.389 
10:20	45.1	42.5	45.1	81	39.6	5	17	315	0.00	29.397 
10:25	45.2	45.2	45.2	82	40.0	3	9	292	0.00	29.400 
10:30	44.9	43.0	44.9	82	39.7	4	10	315	0.00	29.407 
10:35	44.6	42.6	44.6	82	39.4	4	11	270	0.00	29.410 
10:40	44.6	44.6	44.6	83	39.8	3	9	270	0.00	29.416 
10:45	44.3	42.3	44.3	82	39.2	4	11	338	0.00	29.420 
10:50	44.3	44.3	44.3	83	39.5	3	10	315	0.00	29.426 
10:55	44.2	42.2	44.2	82	39.1	4	8	315	0.00	29.429 
11:00	44.3	42.3	44.3	81	38.8	4	10	315	0.00	29.431 
11:05	44.5	44.5	44.5	82	39.4	3	6	315	0.00	29.430 
11:10	44.5	42.5	44.5	81	39.0	4	7	315	0.00	29.431 
11:15	44.8	42.1	44.8	81	39.3	5	13	270	0.00	29.435 
11:20	45.1	43.2	45.1	81	39.6	4	9	315	0.00	29.441 
11:25	45.2	43.3	45.2	80	39.4	4	9	292	0.00	29.444 
11:30	45.2	42.6	45.2	78	38.8	5	13	315	0.00	29.445 
11:35	45.2	42.6	45.2	78	38.8	5	14	270	0.00	29.447 
11:40	45.4	43.6	45.4	76	38.3	4	10	270	0.00	29.451 
11:45	45.7	43.9	45.7	78	39.2	4	10	315	0.00	29.461 
11:50	45.7	45.7	45.7	77	38.9	3	10	338	0.00	29.466 
11:55	45.7	43.9	45.7	77	38.9	4	7	315	0.00	29.471 
12:00	46.0	44.2	46.0	77	39.2	4	7	315	0.00	29.477 
12:05	46.1	44.4	46.1	76	39.0	4	10	270	0.00	29.476 
12:10	46.2	44.5	46.2	75	38.7	4	13	315	0.00	29.479 
12:15	47.0	47.0	47.0	75	39.5	3	7	270	0.00	29.478 
12:20	47.6	46.1	47.6	75	40.1	4	9	315	0.00	29.479 
12:25	48.5	47.1	48.5	74	40.6	4	9	292	0.00	29.485 
12:30	48.9	46.9	48.9	72	40.3	5	8	270	0.00	29.488 
12:35	49.2	47.9	49.2	72	40.6	4	10	270	0.00	29.490 
12:40	49.4	48.2	49.4	70	40.0	4	11	270	0.00	29.492 
12:45	49.6	47.7	49.6	70	40.2	5	11	270	0.00	29.492 
12:50	49.4	47.5	49.4	69	39.7	5	8	315	0.00	29.499 
12:55	49.4	47.5	49.4	69	39.7	5	10	315	0.00	29.504 
13:00	49.4	47.5	49.4	69	39.7	5	14	270	0.00	29.507 
13:05	49.2	47.3	49.2	68	39.1	5	12	270	0.00	29.515 
13:10	49.1	47.2	49.1	69	39.4	5	13	270	0.00	29.522 
13:15	48.5	46.5	48.5	69	38.8	5	13	315	0.00	29.524 
13:20	48.3	46.2	48.3	71	39.3	5	10	270	0.00	29.526 
13:25	48.5	47.1	48.5	72	39.9	4	8	270	0.00	29.536 
13:30	48.0	45.3	48.0	71	39.1	6	16	270	0.00	29.540 
13:35	47.4	44.6	47.4	69	37.7	6	15	270	0.00	29.543 
13:40	47.1	44.2	47.1	71	38.2	6	21	270	0.00	29.549 
13:45	47.0	44.7	47.0	72	38.4	5	12	270	0.00	29.555 
13:50	46.1	43.0	46.1	72	37.6	6	14	270	0.00	29.556 
13:55	45.5	42.9	45.5	73	37.4	5	12	292	0.00	29.559 
14:00	45.7	43.9	45.7	74	37.9	4	10	315	0.00	29.562 
14:05	45.4	41.6	45.4	74	37.6	7	14	270	0.00	29.565 
14:10	45.1	41.8	45.1	73	37.0	6	13	270	0.00	29.572 
14:15	45.1	42.5	45.1	73	37.0	5	12	270	0.00	29.575 
14:20	45.1	42.5	45.1	72	36.6	5	10	270	0.00	29.583 
14:25	45.1	43.2	45.1	73	37.0	4	8	315	0.00	29.587 
14:30	45.1	42.5	45.1	72	36.6	5	10	270	0.00	29.588 
14:35	45.5	42.9	45.5	72	37.0	5	10	270	0.00	29.590 
14:40	45.4	42.8	45.4	71	36.6	5	12	315	0.00	29.598 
14:45	45.2	42.0	45.2	70	36.0	6	14	270	0.00	29.597 
14:50	45.2	43.3	45.2	71	36.4	4	12	315	0.00	29.600 
14:55	45.2	42.6	45.2	70	36.0	5	11	270	0.00	29.605 
15:00	44.9	42.2	44.9	71	36.1	5	10	270	0.00	29.610 
15:05	44.6	41.9	44.6	70	35.4	5	13	270	0.00	29.614 
15:10	44.8	42.1	44.8	70	35.6	5	10	270	0.00	29.616 
15:15	44.8	42.9	44.8	71	36.0	4	9	315	0.00	29.620 
15:20	44.5	41.8	44.5	70	35.3	5	10	315	0.00	29.625 
15:25	44.6	41.9	44.6	69	35.1	5	11	270	0.00	29.627 
15:30	45.1	42.5	45.1	69	35.5	5	11	270	0.00	29.629 
15:35	45.4	43.6	45.4	68	35.5	4	7	270	0.00	29.633 
15:40	45.4	42.2	45.4	64	33.9	6	15	270	0.00	29.635 
15:45	45.4	43.6	45.4	64	33.9	4	11	270	0.00	29.638 
15:50	45.2	42.6	45.2	61	32.6	5	12	315	0.00	29.645 
15:55	45.5	43.7	45.5	62	33.2	4	10	315	0.00	29.645 
16:00	45.2	42.6	45.2	60	32.1	5	13	315	0.00	29.648 
16:05	44.9	42.2	44.9	59	31.5	5	14	315	0.00	29.650 
16:10	45.2	42.6	45.2	56	30.4	5	11	315	0.00	29.651 
16:15	45.1	43.2	45.1	58	31.2	4	9	292	0.00	29.652 
16:20	45.4	43.6	45.4	56	30.6	4	13	292	0.00	29.654 
16:25	45.5	42.9	45.5	56	30.7	5	11	292	0.00	29.659 
16:30	44.6	40.7	44.6	53	28.5	7	18	315	0.00	29.666 
16:35	44.3	40.9	44.3	54	28.7	6	23	270	0.00	29.670 
16:40	44.5	41.1	44.5	54	28.9	6	14	315	0.00	29.674 
16:45	44.2	41.4	44.2	55	29.1	5	12	315	0.00	29.677 
16:50	44.6	42.6	44.6	54	29.0	4	13	292	0.00	29.679 
16:55	44.6	42.6	44.6	55	29.4	4	12	338	0.00	29.682 
17:00	44.6	44.6	44.6	56	29.9	3	11	292	0.00	29.682 
17:05	45.1	43.2	45.1	54	29.5	4	11	270	0.00	29.684 
17:10	45.1	43.2	45.1	54	29.5	4	12	270	0.00	29.689 
17:15	45.1	42.5	45.1	53	29.0	5	12	270	0.00	29.690 
17:20	44.9	43.0	44.9	54	29.3	4	10	270	0.00	29.693 
17:25	44.8	42.9	44.8	54	29.2	4	9	315	0.00	29.697 
17:30	44.3	41.5	44.3	54	28.7	5	14	315	0.00	29.704 
17:35	44.2	44.2	44.2	55	29.1	3	6	315	0.00	29.705 
17:40	44.1	42.1	44.1	55	29.0	4	7	292	0.00	29.710 
17:45	43.8	40.9	43.8	54	28.3	5	11	270	0.00	29.716 
17:50	43.6	41.5	43.6	55	28.5	4	14	270	0.00	29.717 
17:55	43.3	41.1	43.3	55	28.2	4	8	292	0.00	29.720 
18:00	43.2	41.0	43.2	55	28.1	4	12	315	0.00	29.725 
18:05	43.1	40.9	43.1	55	28.0	4	9	270	0.00	29.728 
18:10	43.1	43.1	43.1	56	28.5	3	9	270	0.00	29.730 
18:15	43.1	43.1	43.1	56	28.5	3	10	270	0.00	29.733 
18:20	42.9	40.7	42.9	55	27.9	4	10	270	0.00	29.734 
18:25	42.8	42.8	42.8	56	28.2	2	7	270	0.00	29.737 
18:30	42.6	40.3	42.6	55	27.6	4	10	315	0.00	29.744 
18:35	42.3	42.3	42.3	55	27.3	3	9	315	0.00	29.748 
18:40	42.1	42.1	42.1	56	27.5	2	10	338	0.00	29.750 
18:45	41.9	41.9	41.9	55	26.9	3	9	338	0.00	29.751 
18:50	41.6	39.2	41.6	56	27.1	4	6	270	0.00	29.755 
18:55	41.5	41.5	41.5	56	27.0	3	7	270	0.00	29.760 
19:00	41.3	41.3	41.3	57	27.2	2	5	338	0.00	29.764 
19:05	41.1	41.1	41.1	58	27.5	2	5	338	0.00	29.764 
19:10	40.8	40.8	40.8	58	27.2	2	5	292	0.00	29.766 
19:15	40.8	40.8	40.8	58	27.2	2	5	338	0.00	29.767 
19:20	40.5	40.5	40.5	59	27.3	1	4	315	0.00	29.768 
19:25	40.3	40.3	40.3	59	27.1	2	6	270	0.00	29.772 
19:30	40.2	40.2	40.2	58	26.6	3	10	270	0.00	29.774 
19:35	40.1	40.1	40.1	58	26.5	2	9	315	0.00	29.778 
19:40	39.9	39.9	39.9	59	26.7	2	5	315	0.00	29.783 
19:45	39.8	39.8	39.8	59	26.7	2	5	315	0.00	29.784 
19:50	39.6	39.6	39.6	60	26.9	1	5	315	0.00	29.786 
19:55	39.3	39.3	39.3	61	27.0	1	4	0	0.00	29.789 
20:00	39.2	39.2	39.2	61	26.9	2	4	315	0.00	29.797 
20:05	39.1	39.1	39.1	62	27.2	1	3	338	0.00	29.800 
20:10	38.9	38.9	38.9	61	26.6	2	6	292	0.00	29.801 
20:15	39.1	39.1	39.1	61	26.8	2	6	338	0.00	29.803 
20:20	38.9	38.9	38.9	60	26.2	2	7	292	0.00	29.807 
20:25	38.8	38.8	38.8	60	26.1	1	6	338	0.00	29.810 
20:30	38.5	38.5	38.5	61	26.2	1	4	248	0.00	29.815 
20:35	38.3	38.3	38.3	62	26.4	2	3	248	0.00	29.817 
20:40	38.2	38.2	38.2	62	26.3	1	3	270	0.00	29.818 
20:45	38.0	38.0	38.0	62	26.2	1	3	248	0.00	29.820 
20:50	38.0	38.0	38.0	62	26.2	2	6	292	0.00	29.822 
20:55	37.9	37.9	37.9	62	26.1	2	5	292	0.00	29.826 
21:00	37.9	37.9	37.9	62	26.1	2	5	270	0.00	29.829 
21:05	37.9	37.9	37.9	62	26.1	1	5	270	0.00	29.831 
21:10	37.8	37.8	37.8	62	26.0	1	4	248	0.00	29.833 
21:15	37.6	37.6	37.6	63	26.2	1	3	248	0.00	29.833 
21:20	37.5	37.5	37.5	63	26.1	1	4	248	0.00	29.834 
21:25	37.3	37.3	37.3	63	25.9	1	3	315	0.00	29.834 
21:30	37.3	37.3	37.3	63	25.9	1	3	248	0.00	29.835 
21:35	37.3	37.3	37.3	63	25.9	1	3	248	0.00	29.835 
21:40	37.2	37.2	37.2	64	26.2	1	3	248	0.00	29.836 
21:45	37.2	37.2	37.2	64	26.2	1	3	248	0.00	29.841 
21:50	37.2	37.2	37.2	63	25.8	2	4	248	0.00	29.841 
21:55	37.0	37.0	37.0	64	26.0	1	2	248	0.00	29.841 
22:00	36.9	36.9	36.9	64	25.9	1	3	248	0.00	29.842 
22:05	36.8	36.8	36.8	64	25.8	0	2	248	0.00	29.842 
22:10	36.6	36.6	36.6	65	26.0	1	2	248	0.00	29.843 
22:15	36.6	36.6	36.6	65	26.0	1	3	248	0.00	29.846 
22:20	36.5	36.5	36.5	66	26.2	1	3	248	0.00	29.849 
22:25	36.3	36.3	36.3	66	26.0	0	2	248	0.00	29.849 
22:30	36.3	36.3	36.3	67	26.4	0	3	248	0.00	29.849 
22:35	36.2	36.2	36.2	66	26.0	1	2	248	0.00	29.851 
22:40	36.2	36.2	36.2	66	26.0	1	2	248	0.00	29.852 
22:45	36.2	36.2	36.2	67	26.3	0	1	248	0.00	29.851 
22:50	36.0	36.0	36.0	67	26.1	1	3	248	0.00	29.850 
22:55	35.9	35.9	35.9	67	26.0	0	1	248	0.00	29.850 
23:00	35.8	35.8	35.8	68	26.3	0	3	248	0.00	29.851 
23:05	35.8	35.8	35.8	68	26.3	1	3	248	0.00	29.850 
23:10	35.6	35.6	35.6	68	26.1	1	2	248	0.00	29.854 
23:15	35.6	35.6	35.6	68	26.1	0	1	248	0.00	29.855 
23:20	35.5	35.5	35.5	68	26.0	0	1	248	0.00	29.859 
23:25	35.5	35.5	35.5	69	26.4	0	3	248	0.00	29.863 
23:30	35.5	35.5	35.5	69	26.4	0	2	248	0.00	29.865 
23:35	35.3	35.3	35.3	69	26.2	1	4	248	0.00	29.867 
23:40	35.3	35.3	35.3	69	26.2	1	4	248	0.00	29.867 
23:45	35.3	35.3	35.3	69	26.2	1	4	248	0.00	29.867 
23:50	35.3	35.3	35.3	69	26.2	1	4	248	0.00	29.867 
23:55	35.3	35.3	35.3	69	26.2	1	2	248	0.00	29.867 

CoCoRaHS
IN-AL-39
A2 Web Hosting
Creative Commons License
GoDaddy
search engine by freefind advanced

loaded 2018-11-17 12:21:10 • last modified 2010-11-18 10:43:29
Privacy PolicyDisclaimer
• wx.awcolley.com is powered by PmWiki v.2002016 •
• all content (unless otherwise noted) © 2018 A W Colley